createdAt,value
2022-08-08T00:01:08.654Z,20.90
2022-08-08T00:03:48.261Z,20.80
2022-08-08T00:06:28.493Z,20.80
2022-08-08T00:09:08.949Z,20.80
2022-08-08T00:11:47.147Z,20.80
2022-08-08T00:14:57.292Z,20.70
2022-08-08T00:17:58.582Z,20.70
2022-08-08T00:20:32.235Z,20.60
2022-08-08T00:23:06.195Z,20.60
2022-08-08T00:25:46.318Z,20.60
2022-08-08T00:28:34.112Z,20.60
2022-08-08T00:32:28.253Z,20.60
2022-08-08T00:34:29.891Z,20.50
2022-08-08T00:37:03.885Z,20.50
2022-08-08T00:41:07.688Z,20.50
2022-08-08T00:43:00.777Z,20.50
2022-08-08T00:46:18.878Z,20.50
2022-08-08T00:49:32.234Z,20.50
2022-08-08T00:52:20.123Z,22.70
2022-08-08T00:55:11.278Z,20.40
2022-08-08T00:58:20.443Z,20.50
2022-08-08T01:00:58.531Z,20.40
2022-08-08T01:04:01.913Z,20.40
2022-08-08T01:07:07.936Z,20.30
2022-08-08T01:10:11.869Z,20.30
2022-08-08T01:13:01.205Z,20.20
2022-08-08T01:16:02.722Z,20.20
2022-08-08T01:19:13.814Z,20.20
2022-08-08T01:22:35.046Z,20.10
2022-08-08T01:25:40.862Z,20.10
2022-08-08T01:28:29.536Z,20.10
2022-08-08T01:32:06.354Z,20.10
2022-08-08T01:35:11.374Z,20.10
2022-08-08T01:38:16.663Z,20.00
2022-08-08T01:40:54.216Z,20.00
2022-08-08T01:43:38.703Z,21.30
2022-08-08T01:46:27.140Z,20.00
2022-08-08T01:49:11.048Z,19.90
2022-08-08T01:52:41.282Z,19.90
2022-08-08T01:56:04.567Z,19.80
2022-08-08T01:58:13.322Z,19.80
2022-08-08T02:00:57.217Z,19.70
2022-08-08T02:03:57.458Z,19.70
2022-08-08T02:06:41.069Z,19.70
2022-08-08T02:10:01.074Z,19.70
2022-08-08T02:12:24.302Z,19.50
2022-08-08T02:14:59.620Z,19.50
2022-08-08T02:17:42.836Z,19.50
2022-08-08T02:21:00.644Z,19.40
2022-08-08T02:23:18.305Z,19.40
2022-08-08T02:25:58.963Z,19.40
2022-08-08T02:28:48.165Z,19.30
2022-08-08T02:31:58.053Z,19.30
2022-08-08T02:34:34.755Z,19.20
2022-08-08T02:37:52.930Z,19.20
2022-08-08T02:40:10.207Z,19.20
2022-08-08T02:44:35.488Z,19.20
2022-08-08T02:46:30.613Z,19.10
2022-08-08T02:49:47.510Z,19.00
2022-08-08T02:52:52.042Z,19.00
2022-08-08T02:55:57.996Z,18.90
2022-08-08T02:59:25.788Z,18.90
2022-08-08T03:02:50.601Z,18.90
2022-08-08T03:05:46.424Z,18.90
2022-08-08T03:08:44.415Z,18.90
2022-08-08T03:12:02.752Z,18.80
2022-08-08T03:16:01.862Z,18.80
2022-08-08T03:17:59.606Z,18.80
2022-08-08T03:20:46.986Z,18.70
2022-08-08T03:23:20.985Z,18.70
2022-08-08T03:25:51.649Z,18.70
2022-08-08T03:28:27.599Z,18.70
2022-08-08T03:31:13.564Z,18.70
2022-08-08T03:33:56.696Z,18.70
2022-08-08T03:36:30.424Z,18.70
2022-08-08T03:39:14.119Z,18.60
2022-08-08T03:42:26.642Z,18.60
2022-08-08T03:44:33.833Z,18.60
2022-08-08T03:47:14.086Z,18.60
2022-08-08T03:50:00.564Z,18.50
2022-08-08T03:52:32.366Z,18.50
2022-08-08T03:55:10.290Z,18.50
2022-08-08T03:58:30.601Z,18.50
2022-08-08T04:00:30.596Z,18.50
2022-08-08T04:03:01.945Z,18.50
2022-08-08T04:05:32.962Z,18.40
2022-08-08T04:08:05.518Z,18.40
2022-08-08T04:10:36.857Z,18.40
2022-08-08T04:13:17.930Z,18.30
2022-08-08T04:15:54.891Z,18.30
2022-08-08T04:18:32.523Z,18.40
2022-08-08T04:21:00.966Z,18.40
2022-08-08T04:23:41.346Z,18.40
2022-08-08T04:26:18.417Z,18.40
2022-08-08T04:28:47.593Z,18.40
2022-08-08T04:31:57.357Z,18.40
2022-08-08T04:34:10.310Z,18.40
2022-08-08T04:36:38.138Z,18.40
2022-08-08T04:40:05.556Z,18.30
2022-08-08T04:41:55.139Z,18.30
2022-08-08T04:44:23.866Z,18.30
2022-08-08T04:46:54.995Z,18.30
2022-08-08T04:49:28.749Z,18.30
2022-08-08T04:52:13.829Z,18.30
2022-08-08T04:54:42.690Z,18.40
2022-08-08T04:57:12.321Z,18.40
2022-08-08T04:59:42.214Z,18.40
2022-08-08T05:02:13.626Z,18.40
2022-08-08T05:04:44.612Z,18.40
2022-08-08T05:07:14.847Z,18.40
2022-08-08T05:09:43.477Z,18.50
2022-08-08T05:12:21.049Z,18.50
2022-08-08T05:15:00.501Z,18.50
2022-08-08T05:17:53.689Z,18.50
2022-08-08T05:20:21.260Z,18.50
2022-08-08T05:22:52.613Z,18.60
2022-08-08T05:25:21.933Z,18.60
2022-08-08T05:27:51.342Z,18.60
2022-08-08T05:30:28.121Z,18.60
2022-08-08T05:32:56.501Z,18.60
2022-08-08T05:35:27.092Z,18.60
2022-08-08T05:38:01.108Z,18.60
2022-08-08T05:40:32.346Z,18.60
2022-08-08T05:43:38.271Z,18.60
2022-08-08T05:46:03.757Z,18.60
2022-08-08T05:48:34.571Z,18.70
2022-08-08T05:51:13.347Z,18.80
2022-08-08T05:54:24.714Z,18.80
2022-08-08T05:56:38.645Z,18.90
2022-08-08T05:59:59.391Z,18.90
2022-08-08T06:02:28.944Z,18.90
2022-08-08T06:05:00.632Z,19.00
2022-08-08T06:07:28.672Z,19.00
2022-08-08T06:10:02.628Z,19.10
2022-08-08T06:12:33.951Z,19.20
2022-08-08T06:15:06.205Z,19.50
2022-08-08T06:17:51.181Z,19.30
2022-08-08T06:20:26.139Z,19.30
2022-08-08T06:22:56.441Z,19.30
2022-08-08T06:26:33.869Z,19.30
2022-08-08T06:28:20.225Z,19.40
2022-08-08T06:30:57.597Z,19.40
2022-08-08T06:33:37.172Z,19.50
2022-08-08T06:36:30.059Z,19.50
2022-08-08T06:39:00.599Z,19.60
2022-08-08T06:41:36.250Z,19.70
2022-08-08T06:44:18.457Z,19.70
2022-08-08T06:46:53.270Z,19.80
2022-08-08T06:49:55.664Z,19.90
2022-08-08T06:52:09.349Z,20.00
2022-08-08T06:54:38.514Z,20.10
2022-08-08T06:57:10.932Z,20.20
2022-08-08T07:00:01.687Z,20.20
2022-08-08T07:02:32.264Z,20.40
2022-08-08T07:05:05.403Z,20.40
2022-08-08T07:07:44.405Z,20.50
2022-08-08T07:10:13.557Z,20.50
2022-08-08T07:12:43.303Z,20.70
2022-08-08T07:15:32.117Z,20.70
2022-08-08T07:18:35.919Z,20.80
2022-08-08T07:21:04.754Z,20.80
2022-08-08T07:24:01.750Z,20.90
2022-08-08T07:26:35.963Z,20.90
2022-08-08T07:29:08.201Z,21.00
2022-08-08T07:31:48.878Z,21.00
2022-08-08T07:34:20.471Z,21.10
2022-08-08T07:36:56.240Z,21.20
2022-08-08T07:39:29.631Z,21.20
2022-08-08T07:42:18.887Z,21.40
2022-08-08T07:44:48.988Z,21.40
2022-08-08T07:47:38.997Z,21.40
2022-08-08T07:50:10.059Z,21.50
2022-08-08T07:52:43.494Z,21.60
2022-08-08T07:55:19.039Z,21.60
2022-08-08T07:57:53.884Z,21.70
2022-08-08T08:00:24.618Z,21.70
2022-08-08T08:03:05.205Z,21.90
2022-08-08T08:05:40.029Z,21.90
2022-08-08T08:08:15.445Z,22.00
2022-08-08T08:10:50.691Z,22.00
2022-08-08T08:13:42.156Z,22.20
2022-08-08T08:16:19.751Z,22.20
2022-08-08T08:18:56.611Z,22.20
2022-08-08T08:21:44.765Z,22.30
2022-08-08T08:24:18.646Z,22.30
2022-08-08T08:29:24.040Z,22.40
2022-08-08T08:31:58.131Z,22.50
2022-08-08T08:34:32.512Z,22.60
2022-08-08T08:37:08.143Z,22.70
2022-08-08T08:40:00.390Z,22.70
2022-08-08T08:42:31.585Z,22.90
2022-08-08T08:45:21.031Z,22.90
2022-08-08T08:47:53.649Z,22.90
2022-08-08T08:50:32.412Z,22.90
2022-08-08T08:53:54.227Z,23.00
2022-08-08T08:55:55.752Z,23.10
2022-08-08T08:58:33.099Z,23.10
2022-08-08T09:01:08.606Z,23.10
2022-08-08T09:03:46.813Z,23.20
2022-08-08T09:06:28.634Z,23.30
2022-08-08T09:09:07.304Z,23.30
2022-08-08T09:11:47.369Z,23.40
2022-08-08T09:14:27.332Z,23.40
2022-08-08T09:16:55.964Z,23.60
2022-08-08T09:21:58.399Z,23.60
2022-08-08T09:22:19.631Z,23.70
2022-08-08T09:24:56.754Z,23.70
2022-08-08T09:27:56.812Z,23.80
2022-08-08T09:30:17.914Z,23.90
2022-08-08T09:33:12.552Z,24.00
2022-08-08T09:35:49.305Z,24.90
2022-08-08T09:38:32.607Z,24.10
2022-08-08T09:41:06.964Z,26.30
2022-08-08T09:44:06.945Z,24.30
2022-08-08T09:46:45.536Z,24.40
2022-08-08T09:49:42.306Z,24.40
2022-08-08T09:52:56.648Z,24.50
2022-08-08T09:55:09.719Z,24.70
2022-08-08T09:57:55.415Z,24.80
2022-08-08T10:00:47.855Z,24.90
2022-08-08T10:03:19.787Z,24.90
2022-08-08T10:05:48.460Z,24.90
2022-08-08T10:08:17.827Z,25.00
2022-08-08T10:10:50.967Z,25.20
2022-08-08T10:13:32.133Z,25.20
2022-08-08T10:16:03.979Z,25.20
2022-08-08T10:18:35.110Z,25.30
2022-08-08T10:21:22.983Z,25.40
2022-08-08T10:23:58.525Z,25.50
2022-08-08T10:26:52.416Z,25.50
2022-08-08T10:29:25.168Z,25.50
2022-08-08T10:32:16.183Z,25.70
2022-08-08T10:34:57.037Z,25.70
2022-08-08T10:37:30.205Z,25.80
2022-08-08T10:42:34.790Z,25.90
2022-08-08T10:47:43.689Z,26.00
2022-08-08T10:50:16.439Z,26.10
2022-08-08T10:52:44.893Z,26.30
2022-08-08T10:55:41.663Z,26.30
2022-08-08T10:58:06.718Z,26.40
2022-08-08T11:00:53.075Z,26.50
2022-08-08T11:04:00.332Z,26.50
2022-08-08T11:06:34.222Z,26.50
2022-08-08T11:09:15.244Z,26.50
2022-08-08T11:14:50.310Z,26.50
2022-08-08T11:17:59.605Z,26.50
2022-08-08T11:20:13.147Z,26.60
2022-08-08T11:22:42.163Z,24.60
2022-08-08T11:25:14.568Z,26.70
2022-08-08T11:27:46.931Z,26.90
2022-08-08T11:30:24.408Z,26.90
2022-08-08T11:32:58.286Z,27.00
2022-08-08T11:35:38.580Z,27.20
2022-08-08T11:38:38.608Z,27.20
2022-08-08T11:40:59.213Z,27.20
2022-08-08T11:46:17.408Z,27.50
2022-08-08T11:48:48.665Z,27.50
2022-08-08T11:51:38.707Z,27.50
2022-08-08T11:54:26.860Z,27.60
2022-08-08T11:56:57.643Z,27.60
2022-08-08T11:59:58.241Z,27.60
2022-08-08T12:02:41.175Z,27.70
2022-08-08T12:05:13.517Z,27.70
2022-08-08T12:07:51.244Z,27.80
2022-08-08T12:10:21.276Z,27.90
2022-08-08T12:12:51.735Z,27.90
2022-08-08T12:15:30.608Z,28.00
2022-08-08T12:18:20.754Z,28.00
2022-08-08T12:20:56.615Z,28.10
2022-08-08T12:23:42.696Z,28.00
2022-08-08T12:26:17.459Z,28.00
2022-08-08T12:28:57.137Z,28.10
2022-08-08T12:31:39.269Z,28.10
2022-08-08T12:34:36.428Z,28.20
2022-08-08T12:37:08.220Z,28.20
2022-08-08T12:40:02.060Z,28.20
2022-08-08T12:42:26.586Z,28.20
2022-08-08T12:45:54.806Z,28.20
2022-08-08T12:48:37.268Z,28.20
2022-08-08T12:53:58.500Z,28.20
2022-08-08T12:56:34.013Z,28.10
2022-08-08T12:59:02.744Z,28.10
2022-08-08T13:01:37.795Z,28.20
2022-08-08T13:04:18.664Z,28.30
2022-08-08T13:06:54.971Z,28.40
2022-08-08T13:09:57.645Z,28.40
2022-08-08T13:12:30.204Z,28.40
2022-08-08T13:15:00.886Z,28.40
2022-08-08T13:17:54.216Z,28.40
2022-08-08T13:20:21.659Z,28.50
2022-08-08T13:22:49.591Z,28.60
2022-08-08T13:25:21.212Z,28.60
2022-08-08T13:27:54.464Z,28.60
2022-08-08T13:30:26.392Z,28.60
2022-08-08T13:32:56.973Z,28.60
2022-08-08T13:35:38.696Z,28.60
2022-08-08T13:38:12.228Z,28.70
2022-08-08T13:40:44.664Z,28.70
2022-08-08T13:43:14.117Z,28.80
2022-08-08T13:45:47.629Z,28.80
2022-08-08T13:48:25.161Z,28.90
2022-08-08T13:50:58.040Z,28.90
2022-08-08T13:53:53.277Z,28.90
2022-08-08T13:56:44.675Z,28.90
2022-08-08T13:59:32.571Z,28.90
2022-08-08T14:02:07.517Z,29.00
2022-08-08T14:04:38.649Z,28.90
2022-08-08T14:07:22.369Z,28.90
2022-08-08T14:10:05.253Z,29.00
2022-08-08T14:12:45.120Z,29.10
2022-08-08T14:15:31.518Z,29.20
2022-08-08T14:18:34.586Z,29.30
2022-08-08T14:21:03.530Z,29.40
2022-08-08T14:24:07.967Z,29.50
2022-08-08T14:26:29.384Z,29.50
2022-08-08T14:29:01.646Z,29.60
2022-08-08T14:32:06.012Z,29.60
2022-08-08T14:34:23.193Z,29.60
2022-08-08T14:36:55.637Z,29.50
2022-08-08T14:39:24.708Z,29.50
2022-08-08T14:42:03.348Z,29.70
2022-08-08T14:44:39.369Z,29.70
2022-08-08T14:47:17.102Z,29.70
2022-08-08T14:50:06.612Z,29.80
2022-08-08T14:52:46.447Z,30.00
2022-08-08T14:55:16.405Z,30.00
2022-08-08T14:58:06.173Z,30.00
2022-08-08T15:00:39.791Z,30.10
2022-08-08T15:03:15.977Z,30.10
2022-08-08T15:05:54.245Z,30.10
2022-08-08T15:08:34.634Z,30.20
2022-08-08T15:11:06.924Z,30.30
2022-08-08T15:13:41.137Z,30.20
2022-08-08T15:16:24.335Z,30.30
2022-08-08T15:18:52.268Z,30.30
2022-08-08T15:21:20.832Z,30.40
2022-08-08T15:23:51.585Z,30.50
2022-08-08T15:26:20.028Z,30.60
2022-08-08T15:28:53.153Z,30.70
2022-08-08T15:31:55.491Z,30.60
2022-08-08T15:34:28.823Z,30.60
2022-08-08T15:36:58.713Z,30.60
2022-08-08T15:41:59.227Z,30.80
2022-08-08T15:44:27.587Z,30.80
2022-08-08T15:46:56.173Z,30.90
2022-08-08T15:49:27.614Z,31.00
2022-08-08T15:51:57.711Z,31.30
2022-08-08T15:54:38.138Z,31.30
2022-08-08T15:57:07.370Z,31.40
2022-08-08T16:00:06.046Z,31.50
2022-08-08T16:02:31.168Z,31.50
2022-08-08T16:05:01.548Z,31.50
2022-08-08T16:07:39.504Z,31.60
2022-08-08T16:13:03.529Z,31.50
2022-08-08T16:13:21.409Z,33.30
2022-08-08T16:15:58.703Z,31.70
2022-08-08T16:18:31.527Z,31.80
2022-08-08T16:21:02.502Z,31.80
2022-08-08T16:23:32.718Z,31.80
2022-08-08T16:26:13.180Z,31.90
2022-08-08T16:28:47.595Z,31.90
2022-08-08T16:31:15.498Z,32.00
2022-08-08T16:33:58.221Z,32.10
2022-08-08T16:36:33.609Z,32.20
2022-08-08T16:39:09.962Z,32.40
2022-08-08T16:41:51.280Z,32.40
2022-08-08T16:44:27.781Z,32.60
2022-08-08T16:47:16.443Z,32.70
2022-08-08T16:49:44.500Z,32.70
2022-08-08T16:55:04.908Z,32.60
2022-08-08T16:55:52.658Z,32.60
2022-08-08T16:58:16.323Z,32.70
2022-08-08T17:00:49.173Z,32.70
2022-08-08T17:03:25.489Z,32.90
2022-08-08T17:06:35.485Z,32.80
2022-08-08T17:08:57.585Z,32.90
2022-08-08T17:11:28.417Z,32.90
2022-08-08T17:14:17.713Z,32.90
2022-08-08T17:16:57.733Z,33.00
2022-08-08T17:19:27.327Z,33.40
2022-08-08T17:21:55.331Z,33.80
2022-08-08T17:24:29.748Z,34.00
2022-08-08T17:27:05.797Z,34.10
2022-08-08T17:29:43.253Z,34.30
2022-08-08T17:32:11.957Z,34.60
2022-08-08T17:35:14.393Z,34.60
2022-08-08T17:37:28.080Z,34.80
2022-08-08T17:40:12.711Z,34.80
2022-08-08T17:42:41.351Z,35.10
2022-08-08T17:45:23.311Z,35.20
2022-08-08T17:47:54.084Z,35.20
2022-08-08T17:50:23.475Z,35.50
2022-08-08T17:52:51.603Z,35.90
2022-08-08T17:56:03.405Z,36.30
2022-08-08T17:58:11.656Z,35.50
2022-08-08T18:00:41.561Z,37.00
2022-08-08T18:03:13.329Z,37.50
2022-08-08T18:05:48.638Z,37.60
2022-08-08T18:08:25.034Z,37.90
2022-08-08T18:11:14.405Z,38.00
2022-08-08T18:13:45.193Z,37.80
2022-08-08T18:16:20.396Z,37.70
2022-08-08T18:18:53.777Z,37.50
2022-08-08T18:21:34.562Z,37.40
2022-08-08T18:24:17.651Z,36.90
2022-08-08T18:26:54.188Z,36.80
2022-08-08T18:29:27.295Z,36.70
2022-08-08T18:31:58.605Z,36.20
2022-08-08T18:34:27.563Z,36.20
2022-08-08T18:36:56.189Z,35.80
2022-08-08T18:39:29.387Z,35.50
2022-08-08T18:42:03.179Z,34.80
2022-08-08T18:44:32.812Z,34.70
2022-08-08T18:47:02.899Z,34.20
2022-08-08T18:49:40.987Z,33.40
2022-08-08T18:52:22.760Z,31.90
2022-08-08T18:55:00.897Z,31.80
2022-08-08T18:57:45.080Z,31.20
2022-08-08T19:00:16.853Z,30.60
2022-08-08T19:02:55.996Z,29.80
2022-08-08T19:05:34.103Z,29.60
2022-08-08T19:08:09.986Z,29.00
2022-08-08T19:10:41.384Z,29.00
2022-08-08T19:13:21.673Z,28.60
2022-08-08T19:15:55.843Z,28.20
2022-08-08T19:18:33.040Z,28.20
2022-08-08T19:21:23.061Z,28.00
2022-08-08T19:26:30.500Z,27.60
2022-08-08T19:29:00.368Z,27.50
2022-08-08T19:31:31.025Z,27.30
2022-08-08T19:34:30.306Z,27.30
2022-08-08T19:39:16.338Z,27.10
2022-08-08T19:41:47.473Z,27.10
2022-08-08T19:44:43.327Z,27.00
2022-08-08T19:47:06.633Z,26.90
2022-08-08T19:49:37.761Z,26.80
2022-08-08T19:52:07.035Z,26.80
2022-08-08T19:54:35.262Z,26.70
2022-08-08T19:57:07.503Z,26.70
2022-08-08T19:59:39.171Z,26.60
2022-08-08T20:02:07.598Z,26.50
2022-08-08T20:04:38.905Z,26.50
2022-08-08T20:08:26.976Z,26.50
2022-08-08T20:09:59.530Z,26.40
2022-08-08T20:12:32.306Z,26.30
2022-08-08T20:15:14.702Z,26.30
2022-08-08T20:17:46.015Z,26.20
2022-08-08T20:20:19.168Z,26.20
2022-08-08T20:22:54.117Z,26.10
2022-08-08T20:25:29.935Z,26.10
2022-08-08T20:28:06.437Z,26.00
2022-08-08T20:30:55.823Z,25.90
2022-08-08T20:35:58.981Z,25.80
2022-08-08T20:38:34.153Z,25.70
2022-08-08T20:41:05.840Z,25.70
2022-08-08T20:43:49.312Z,25.60
2022-08-08T20:46:20.254Z,25.60
2022-08-08T20:48:50.968Z,25.50
2022-08-08T20:51:20.839Z,25.50
2022-08-08T20:53:58.194Z,25.40
2022-08-08T20:56:35.633Z,25.40
2022-08-08T20:59:08.657Z,25.30
2022-08-08T21:02:05.788Z,25.20
2022-08-08T21:04:27.935Z,25.10
2022-08-08T21:06:56.340Z,25.10
2022-08-08T21:09:31.493Z,26.10
2022-08-08T21:12:03.140Z,25.00
2022-08-08T21:14:33.590Z,24.90
2022-08-08T21:17:06.241Z,24.90
2022-08-08T21:19:45.618Z,24.90
2022-08-08T21:22:15.432Z,24.80
2022-08-08T21:24:52.549Z,24.80
2022-08-08T21:28:05.751Z,24.70
2022-08-08T21:30:18.641Z,24.70
2022-08-08T21:32:52.259Z,24.60
2022-08-08T21:36:14.317Z,24.60
2022-08-08T21:38:17.193Z,24.50
2022-08-08T21:40:56.491Z,24.40
2022-08-08T21:43:33.395Z,24.40
2022-08-08T21:48:07.084Z,24.40
2022-08-08T21:48:53.835Z,24.40
2022-08-08T21:51:45.887Z,24.30
2022-08-08T21:54:36.543Z,24.30
2022-08-08T21:57:00.796Z,24.30
2022-08-08T21:59:44.105Z,24.20
2022-08-08T22:02:22.813Z,24.10
2022-08-08T22:04:55.936Z,24.10
2022-08-08T22:07:34.625Z,24.00
2022-08-08T22:10:09.701Z,24.00
2022-08-08T22:12:38.786Z,23.80
2022-08-08T22:15:08.155Z,23.80
2022-08-08T22:17:45.057Z,23.80
2022-08-08T22:20:23.411Z,23.80
2022-08-08T22:22:52.602Z,23.80
2022-08-08T22:25:24.983Z,23.80
2022-08-08T22:28:03.600Z,23.70
2022-08-08T22:30:33.571Z,23.70
2022-08-08T22:33:02.079Z,23.70
2022-08-08T22:36:05.511Z,23.70
2022-08-08T22:38:20.132Z,23.70
2022-08-08T22:40:49.452Z,23.60
2022-08-08T22:43:17.872Z,23.60
2022-08-08T22:45:46.620Z,23.60
2022-08-08T22:48:21.699Z,23.50
2022-08-08T22:50:51.665Z,23.50
2022-08-08T22:54:30.361Z,23.50
2022-08-08T22:56:07.833Z,23.50
2022-08-08T22:58:35.747Z,23.40
2022-08-08T23:01:26.572Z,23.40
2022-08-08T23:03:56.589Z,23.30
2022-08-08T23:06:26.695Z,23.20
2022-08-08T23:08:58.925Z,23.20
2022-08-08T23:11:30.809Z,23.20
2022-08-08T23:14:17.543Z,23.10
2022-08-08T23:16:54.917Z,23.00
2022-08-08T23:19:27.499Z,22.90
2022-08-08T23:22:01.022Z,22.80
2022-08-08T23:24:36.264Z,22.80
2022-08-08T23:27:05.665Z,22.80
2022-08-08T23:29:34.113Z,22.80
2022-08-08T23:32:04.411Z,22.70
2022-08-08T23:34:33.169Z,22.70
2022-08-08T23:37:04.201Z,22.70
2022-08-08T23:39:41.896Z,22.70
2022-08-08T23:42:17.745Z,22.60
2022-08-08T23:44:49.337Z,22.60
2022-08-08T23:49:03.735Z,22.60
2022-08-08T23:50:05.840Z,22.50
2022-08-08T23:52:35.249Z,22.50
2022-08-08T23:55:14.623Z,22.50
2022-08-08T23:57:52.587Z,22.40
